sensor_id;sensor_type;location;lat;lon;timestamp;P1;durP1;ratioP1;P2;durP2;ratioP2
45232;SDS011;30969;51.052;17.056;2023-04-26T04:55:11;7.97;;;2.83;;
45232;SDS011;30969;51.052;17.056;2023-04-26T05:00:15;5.93;;;2.88;;
45232;SDS011;30969;51.052;17.056;2023-04-26T05:05:19;4.57;;;2.60;;
45232;SDS011;30969;51.052;17.056;2023-04-26T05:10:24;8.45;;;3.28;;
45232;SDS011;30969;51.052;17.056;2023-04-26T05:15:28;6.53;;;2.22;;
45232;SDS011;30969;51.052;17.056;2023-04-26T05:20:31;8.63;;;3.03;;
45232;SDS011;30969;51.052;17.056;2023-04-26T05:25:37;6.07;;;3.00;;
45232;SDS011;30969;51.052;17.056;2023-04-26T05:30:41;8.00;;;2.30;;
45232;SDS011;30969;51.052;17.056;2023-04-26T05:35:45;7.60;;;2.38;;
45232;SDS011;30969;51.052;17.056;2023-04-26T05:40:49;11.77;;;2.45;;
45232;SDS011;30969;51.052;17.056;2023-04-26T05:45:54;5.20;;;2.30;;
45232;SDS011;30969;51.052;17.056;2023-04-26T05:50:58;7.13;;;2.17;;
45232;SDS011;30969;51.052;17.056;2023-04-26T05:56:03;12.65;;;2.65;;
45232;SDS011;30969;51.052;17.056;2023-04-26T06:01:08;8.02;;;2.70;;
45232;SDS011;30969;51.052;17.056;2023-04-26T06:06:13;9.43;;;2.47;;
45232;SDS011;30969;51.052;17.056;2023-04-26T06:11:18;7.03;;;2.20;;
45232;SDS011;30969;51.052;17.056;2023-04-26T06:16:22;15.02;;;2.55;;
45232;SDS011;30969;51.052;17.056;2023-04-26T06:21:25;9.15;;;2.70;;
45232;SDS011;30969;51.052;17.056;2023-04-26T06:26:30;6.72;;;2.15;;
45232;SDS011;30969;51.052;17.056;2023-04-26T06:31:34;11.88;;;2.55;;
45232;SDS011;30969;51.052;17.056;2023-04-26T06:36:38;10.82;;;2.80;;
45232;SDS011;30969;51.052;17.056;2023-04-26T06:41:43;7.50;;;2.10;;
45232;SDS011;30969;51.052;17.056;2023-04-26T06:46:47;7.07;;;1.92;;
45232;SDS011;30969;51.052;17.056;2023-04-26T06:51:51;10.63;;;2.97;;
45232;SDS011;30969;51.052;17.056;2023-04-26T06:56:56;12.20;;;2.22;;
45232;SDS011;30969;51.052;17.056;2023-04-26T07:02:02;6.65;;;2.03;;
45232;SDS011;30969;51.052;17.056;2023-04-26T07:07:06;13.60;;;1.90;;
45232;SDS011;30969;51.052;17.056;2023-04-26T07:12:13;5.05;;;1.85;;
45232;SDS011;30969;51.052;17.056;2023-04-26T07:17:17;8.00;;;1.88;;
45232;SDS011;30969;51.052;17.056;2023-04-26T07:22:22;12.27;;;2.40;;
45232;SDS011;30969;51.052;17.056;2023-04-26T07:27:27;8.07;;;1.80;;
45232;SDS011;30969;51.052;17.056;2023-04-26T07:32:32;5.93;;;1.98;;
45232;SDS011;30969;51.052;17.056;2023-04-26T07:37:37;10.27;;;2.00;;
45232;SDS011;30969;51.052;17.056;2023-04-26T07:42:42;9.38;;;1.50;;
45232;SDS011;30969;51.052;17.056;2023-04-26T07:47:46;11.38;;;2.75;;
45232;SDS011;30969;51.052;17.056;2023-04-26T07:52:49;6.15;;;1.40;;
45232;SDS011;30969;51.052;17.056;2023-04-26T07:57:54;10.70;;;1.60;;
45232;SDS011;30969;51.052;17.056;2023-04-26T08:02:58;9.95;;;2.58;;
45232;SDS011;30969;51.052;17.056;2023-04-26T08:08:04;7.05;;;1.23;;
45232;SDS011;30969;51.052;17.056;2023-04-26T08:13:09;8.18;;;1.83;;
45232;SDS011;30969;51.052;17.056;2023-04-26T08:18:12;5.78;;;1.10;;
45232;SDS011;30969;51.052;17.056;2023-04-26T08:23:16;7.03;;;1.52;;
45232;SDS011;30969;51.052;17.056;2023-04-26T08:28:21;3.83;;;1.40;;
45232;SDS011;30969;51.052;17.056;2023-04-26T08:33:25;8.10;;;2.55;;
45232;SDS011;30969;51.052;17.056;2023-04-26T08:38:28;3.17;;;1.02;;
45232;SDS011;30969;51.052;17.056;2023-04-26T08:43:34;13.00;;;2.08;;
45232;SDS011;30969;51.052;17.056;2023-04-26T08:48:39;7.78;;;1.40;;
45232;SDS011;30969;51.052;17.056;2023-04-26T08:53:42;4.03;;;1.00;;
45232;SDS011;30969;51.052;17.056;2023-04-26T08:58:48;5.18;;;1.40;;
45232;SDS011;30969;51.052;17.056;2023-04-26T09:03:53;3.50;;;1.08;;
45232;SDS011;30969;51.052;17.056;2023-04-26T09:08:58;4.70;;;0.98;;
45232;SDS011;30969;51.052;17.056;2023-04-26T09:14:07;12.10;;;2.13;;
45232;SDS011;30969;51.052;17.056;2023-04-26T09:19:10;5.72;;;1.08;;
45232;SDS011;30969;51.052;17.056;2023-04-26T09:24:14;6.82;;;1.35;;
45232;SDS011;30969;51.052;17.056;2023-04-26T09:29:19;10.25;;;1.90;;
45232;SDS011;30969;51.052;17.056;2023-04-26T09:34:22;4.13;;;0.90;;
45232;SDS011;30969;51.052;17.056;2023-04-26T09:39:29;3.83;;;1.17;;
45232;SDS011;30969;51.052;17.056;2023-04-26T09:44:36;4.53;;;1.20;;
45232;SDS011;30969;51.052;17.056;2023-04-26T09:49:44;4.63;;;1.00;;
45232;SDS011;30969;51.052;17.056;2023-04-26T09:54:50;4.18;;;1.30;;
45232;SDS011;30969;51.052;17.056;2023-04-26T09:59:56;3.65;;;1.10;;
45232;SDS011;30969;51.052;17.056;2023-04-26T10:05:01;4.28;;;1.15;;
45232;SDS011;30969;51.052;17.056;2023-04-26T10:10:08;4.40;;;1.20;;
45232;SDS011;30969;51.052;17.056;2023-04-26T10:15:14;6.57;;;1.30;;
45232;SDS011;30969;51.052;17.056;2023-04-26T10:20:20;3.40;;;1.20;;
45232;SDS011;30969;51.052;17.056;2023-04-26T10:25:33;7.78;;;1.48;;
45232;SDS011;30969;51.052;17.056;2023-04-26T10:36:02;6.13;;;1.20;;
45232;SDS011;30969;51.052;17.056;2023-04-26T10:41:29;7.22;;;1.33;;
45232;SDS011;30969;51.052;17.056;2023-04-26T10:46:36;3.35;;;1.02;;
45232;SDS011;30969;51.052;17.056;2023-04-26T10:57:13;6.93;;;1.27;;
45232;SDS011;30969;51.052;17.056;2023-04-26T11:02:22;3.33;;;1.00;;
45232;SDS011;30969;51.052;17.056;2023-04-26T11:08:02;4.18;;;1.20;;
45232;SDS011;30969;51.052;17.056;2023-04-26T11:13:10;2.85;;;0.80;;
45232;SDS011;30969;51.052;17.056;2023-04-26T11:18:15;4.55;;;0.95;;
45232;SDS011;30969;51.052;17.056;2023-04-26T11:23:21;7.28;;;1.10;;
45232;SDS011;30969;51.052;17.056;2023-04-26T11:28:26;3.45;;;1.00;;
45232;SDS011;30969;51.052;17.056;2023-04-26T11:33:31;3.50;;;0.90;;
45232;SDS011;30969;51.052;17.056;2023-04-26T11:38:36;6.78;;;1.15;;
45232;SDS011;30969;51.052;17.056;2023-04-26T11:43:40;4.05;;;1.55;;
45232;SDS011;30969;51.052;17.056;2023-04-26T11:48:45;1.88;;;0.73;;
45232;SDS011;30969;51.052;17.056;2023-04-26T11:53:49;3.10;;;0.85;;
45232;SDS011;30969;51.052;17.056;2023-04-26T11:58:53;3.10;;;0.90;;
45232;SDS011;30969;51.052;17.056;2023-04-26T12:04:00;4.47;;;1.30;;
45232;SDS011;30969;51.052;17.056;2023-04-26T12:09:04;4.60;;;1.20;;
45232;SDS011;30969;51.052;17.056;2023-04-26T12:14:08;5.65;;;1.88;;
45232;SDS011;30969;51.052;17.056;2023-04-26T12:19:14;2.95;;;1.05;;
45232;SDS011;30969;51.052;17.056;2023-04-26T12:24:21;3.88;;;1.20;;
45232;SDS011;30969;51.052;17.056;2023-04-26T12:29:25;3.33;;;0.90;;
45232;SDS011;30969;51.052;17.056;2023-04-26T12:34:32;3.05;;;1.00;;
45232;SDS011;30969;51.052;17.056;2023-04-26T12:39:36;2.42;;;1.08;;
45232;SDS011;30969;51.052;17.056;2023-04-26T12:44:39;4.60;;;1.20;;
45232;SDS011;30969;51.052;17.056;2023-04-26T12:49:45;3.17;;;1.30;;
45232;SDS011;30969;51.052;17.056;2023-04-26T12:54:48;3.95;;;0.90;;
45232;SDS011;30969;51.052;17.056;2023-04-26T12:59:53;5.43;;;1.08;;
45232;SDS011;30969;51.052;17.056;2023-04-26T13:04:59;5.00;;;1.65;;
45232;SDS011;30969;51.052;17.056;2023-04-26T13:10:06;10.13;;;1.38;;
45232;SDS011;30969;51.052;17.056;2023-04-26T13:15:13;5.97;;;0.80;;
45232;SDS011;30969;51.052;17.056;2023-04-26T13:20:20;7.70;;;1.15;;
45232;SDS011;30969;51.052;17.056;2023-04-26T13:25:26;5.97;;;1.38;;
45232;SDS011;30969;51.052;17.056;2023-04-26T13:30:30;4.85;;;1.40;;
45232;SDS011;30969;51.052;17.056;2023-04-26T13:35:35;3.40;;;1.48;;
45232;SDS011;30969;51.052;17.056;2023-04-26T13:40:39;5.55;;;1.17;;
45232;SDS011;30969;51.052;17.056;2023-04-26T13:45:42;4.18;;;1.20;;
45232;SDS011;30969;51.052;17.056;2023-04-26T13:50:47;4.75;;;1.13;;
45232;SDS011;30969;51.052;17.056;2023-04-26T13:55:50;3.15;;;1.00;;
45232;SDS011;30969;51.052;17.056;2023-04-26T14:00:54;2.13;;;1.15;;
45232;SDS011;30969;51.052;17.056;2023-04-26T14:06:00;3.17;;;0.90;;
45232;SDS011;30969;51.052;17.056;2023-04-26T14:11:04;4.72;;;1.10;;
45232;SDS011;30969;51.052;17.056;2023-04-26T14:16:08;1.92;;;0.80;;
45232;SDS011;30969;51.052;17.056;2023-04-26T14:21:14;1.65;;;0.95;;
45232;SDS011;30969;51.052;17.056;2023-04-26T14:26:17;3.88;;;1.10;;
45232;SDS011;30969;51.052;17.056;2023-04-26T14:31:21;1.83;;;0.90;;
45232;SDS011;30969;51.052;17.056;2023-04-26T14:36:28;2.78;;;0.90;;
45232;SDS011;30969;51.052;17.056;2023-04-26T14:41:32;2.45;;;0.93;;
45232;SDS011;30969;51.052;17.056;2023-04-26T14:46:36;2.33;;;1.20;;
45232;SDS011;30969;51.052;17.056;2023-04-26T14:51:45;4.47;;;1.30;;
45232;SDS011;30969;51.052;17.056;2023-04-26T14:56:48;4.20;;;0.95;;
45232;SDS011;30969;51.052;17.056;2023-04-26T15:01:52;2.42;;;1.10;;
45232;SDS011;30969;51.052;17.056;2023-04-26T15:06:58;3.50;;;0.93;;
45232;SDS011;30969;51.052;17.056;2023-04-26T15:12:01;3.08;;;1.20;;
45232;SDS011;30969;51.052;17.056;2023-04-26T15:17:05;5.88;;;1.45;;
45232;SDS011;30969;51.052;17.056;2023-04-26T15:22:10;3.17;;;1.33;;
45232;SDS011;30969;51.052;17.056;2023-04-26T15:27:14;6.85;;;1.17;;
45232;SDS011;30969;51.052;17.056;2023-04-26T15:32:18;2.47;;;0.88;;
45232;SDS011;30969;51.052;17.056;2023-04-26T15:37:22;4.75;;;1.20;;
45232;SDS011;30969;51.052;17.056;2023-04-26T15:42:26;4.53;;;1.42;;
45232;SDS011;30969;51.052;17.056;2023-04-26T15:47:29;2.35;;;0.85;;
45232;SDS011;30969;51.052;17.056;2023-04-26T15:52:35;3.63;;;1.30;;
45232;SDS011;30969;51.052;17.056;2023-04-26T15:57:40;1.52;;;0.93;;
45232;SDS011;30969;51.052;17.056;2023-04-26T16:02:44;4.10;;;1.27;;
45232;SDS011;30969;51.052;17.056;2023-04-26T16:07:49;4.97;;;1.20;;
45232;SDS011;30969;51.052;17.056;2023-04-26T16:12:52;4.57;;;1.55;;
45232;SDS011;30969;51.052;17.056;2023-04-26T16:17:56;8.25;;;1.67;;
45232;SDS011;30969;51.052;17.056;2023-04-26T16:23:01;5.43;;;1.73;;
45232;SDS011;30969;51.052;17.056;2023-04-26T16:28:04;4.55;;;1.88;;
45232;SDS011;30969;51.052;17.056;2023-04-26T16:33:11;5.82;;;2.00;;
45232;SDS011;30969;51.052;17.056;2023-04-26T16:38:16;7.57;;;1.98;;
45232;SDS011;30969;51.052;17.056;2023-04-26T16:43:20;4.53;;;1.60;;
45232;SDS011;30969;51.052;17.056;2023-04-26T16:48:23;5.65;;;1.23;;
45232;SDS011;30969;51.052;17.056;2023-04-26T16:53:28;3.58;;;1.58;;
45232;SDS011;30969;51.052;17.056;2023-04-26T16:58:32;2.80;;;1.42;;
45232;SDS011;30969;51.052;17.056;2023-04-26T17:03:36;3.03;;;1.50;;
45232;SDS011;30969;51.052;17.056;2023-04-26T17:08:41;7.55;;;1.83;;
45232;SDS011;30969;51.052;17.056;2023-04-26T17:13:45;3.88;;;1.48;;
45232;SDS011;30969;51.052;17.056;2023-04-26T17:18:49;2.50;;;1.73;;
45232;SDS011;30969;51.052;17.056;2023-04-26T17:23:54;3.85;;;1.73;;
45232;SDS011;30969;51.052;17.056;2023-04-26T17:28:58;5.47;;;2.08;;
45232;SDS011;30969;51.052;17.056;2023-04-26T17:34:01;7.10;;;2.42;;
45232;SDS011;30969;51.052;17.056;2023-04-26T17:39:07;3.35;;;1.70;;
45232;SDS011;30969;51.052;17.056;2023-04-26T17:44:11;3.65;;;1.75;;
45232;SDS011;30969;51.052;17.056;2023-04-26T17:49:14;6.75;;;1.95;;
45232;SDS011;30969;51.052;17.056;2023-04-26T17:54:19;5.60;;;2.30;;
45232;SDS011;30969;51.052;17.056;2023-04-26T17:59:23;7.38;;;2.17;;
45232;SDS011;30969;51.052;17.056;2023-04-26T18:04:26;3.63;;;2.03;;
45232;SDS011;30969;51.052;17.056;2023-04-26T18:09:32;4.43;;;2.05;;
45232;SDS011;30969;51.052;17.056;2023-04-26T18:14:36;7.90;;;2.50;;
45232;SDS011;30969;51.052;17.056;2023-04-26T18:19:45;5.60;;;2.47;;
45232;SDS011;30969;51.052;17.056;2023-04-26T18:24:50;8.05;;;2.90;;
45232;SDS011;30969;51.052;17.056;2023-04-26T18:29:53;5.45;;;2.25;;
45232;SDS011;30969;51.052;17.056;2023-04-26T18:34:57;6.07;;;2.47;;
45232;SDS011;30969;51.052;17.056;2023-04-26T18:40:03;5.15;;;2.80;;
45232;SDS011;30969;51.052;17.056;2023-04-26T18:45:07;8.40;;;2.90;;
45232;SDS011;30969;51.052;17.056;2023-04-26T18:50:11;13.50;;;2.78;;
45232;SDS011;30969;51.052;17.056;2023-04-26T18:55:16;7.00;;;3.63;;
45232;SDS011;30969;51.052;17.056;2023-04-26T19:00:20;12.98;;;3.75;;
45232;SDS011;30969;51.052;17.056;2023-04-26T19:05:24;13.40;;;4.20;;
45232;SDS011;30969;51.052;17.056;2023-04-26T19:10:30;17.90;;;6.85;;
45232;SDS011;30969;51.052;17.056;2023-04-26T19:15:33;9.57;;;5.47;;
45232;SDS011;30969;51.052;17.056;2023-04-26T19:20:37;11.93;;;4.35;;
45232;SDS011;30969;51.052;17.056;2023-04-26T19:25:43;14.10;;;4.45;;
45232;SDS011;30969;51.052;17.056;2023-04-26T19:30:46;10.52;;;4.70;;
45232;SDS011;30969;51.052;17.056;2023-04-26T19:35:50;9.70;;;4.63;;
45232;SDS011;30969;51.052;17.056;2023-04-26T19:40:55;9.77;;;4.32;;
45232;SDS011;30969;51.052;17.056;2023-04-26T19:45:58;7.90;;;4.20;;
45232;SDS011;30969;51.052;17.056;2023-04-26T19:51:02;12.45;;;5.63;;
45232;SDS011;30969;51.052;17.056;2023-04-26T19:56:07;11.35;;;5.38;;
45232;SDS011;30969;51.052;17.056;2023-04-26T20:01:12;16.45;;;6.72;;
45232;SDS011;30969;51.052;17.056;2023-04-26T20:06:16;12.57;;;5.85;;
45232;SDS011;30969;51.052;17.056;2023-04-26T20:11:21;12.45;;;5.13;;
45232;SDS011;30969;51.052;17.056;2023-04-26T20:16:25;13.98;;;5.13;;
45232;SDS011;30969;51.052;17.056;2023-04-26T20:21:29;10.07;;;4.97;;
45232;SDS011;30969;51.052;17.056;2023-04-26T20:26:34;11.48;;;3.92;;
45232;SDS011;30969;51.052;17.056;2023-04-26T20:31:38;12.45;;;5.32;;
45232;SDS011;30969;51.052;17.056;2023-04-26T20:36:42;8.93;;;4.47;;
45232;SDS011;30969;51.052;17.056;2023-04-26T20:41:46;11.25;;;4.22;;
45232;SDS011;30969;51.052;17.056;2023-04-26T20:46:50;10.20;;;4.05;;
45232;SDS011;30969;51.052;17.056;2023-04-26T20:51:53;9.35;;;4.40;;
45232;SDS011;30969;51.052;17.056;2023-04-26T20:56:58;12.35;;;4.70;;
45232;SDS011;30969;51.052;17.056;2023-04-26T21:02:05;11.45;;;5.88;;
45232;SDS011;30969;51.052;17.056;2023-04-26T21:07:09;13.75;;;5.85;;
45232;SDS011;30969;51.052;17.056;2023-04-26T21:12:15;15.27;;;6.60;;
45232;SDS011;30969;51.052;17.056;2023-04-26T21:17:19;17.02;;;6.88;;
45232;SDS011;30969;51.052;17.056;2023-04-26T21:22:22;11.00;;;5.70;;
45232;SDS011;30969;51.052;17.056;2023-04-26T21:27:28;11.77;;;5.13;;
45232;SDS011;30969;51.052;17.056;2023-04-26T21:32:32;10.80;;;5.28;;
45232;SDS011;30969;51.052;17.056;2023-04-26T21:37:35;13.05;;;6.10;;
45232;SDS011;30969;51.052;17.056;2023-04-26T21:42:40;9.88;;;4.90;;
45232;SDS011;30969;51.052;17.056;2023-04-26T21:47:52;11.80;;;6.13;;
45232;SDS011;30969;51.052;17.056;2023-04-26T21:52:55;11.18;;;6.35;;
45232;SDS011;30969;51.052;17.056;2023-04-26T21:58:00;14.57;;;7.00;;
45232;SDS011;30969;51.052;17.056;2023-04-26T22:03:04;11.55;;;6.05;;
45232;SDS011;30969;51.052;17.056;2023-04-26T22:08:07;16.95;;;7.60;;
45232;SDS011;30969;51.052;17.056;2023-04-26T22:13:12;14.93;;;7.60;;
45232;SDS011;30969;51.052;17.056;2023-04-26T22:18:16;12.93;;;7.35;;
45232;SDS011;30969;51.052;17.056;2023-04-26T22:23:19;13.43;;;6.63;;
45232;SDS011;30969;51.052;17.056;2023-04-26T22:28:25;13.43;;;7.50;;
